createdAt,value
2019-05-22T00:01:30.479Z,82.50
2019-05-22T00:04:26.097Z,82.40
2019-05-22T00:07:04.814Z,82.40
2019-05-22T00:09:41.051Z,82.40
2019-05-22T00:12:22.055Z,82.30
2019-05-22T00:14:58.080Z,82.20
2019-05-22T00:17:35.169Z,82.10
2019-05-22T00:20:10.770Z,82.10
2019-05-22T00:22:47.467Z,82.20
2019-05-22T00:25:26.065Z,82.20
2019-05-22T00:28:00.853Z,82.50
2019-05-22T00:30:37.507Z,82.50
2019-05-22T00:33:13.294Z,82.60
2019-05-22T00:35:48.435Z,82.80
2019-05-22T00:38:24.309Z,83.10
2019-05-22T00:40:59.738Z,83.20
2019-05-22T00:43:32.047Z,83.40
2019-05-22T00:46:08.417Z,83.50
2019-05-22T00:48:45.611Z,83.20
2019-05-22T00:51:30.794Z,82.90
2019-05-22T00:54:19.933Z,82.80
2019-05-22T00:57:00.577Z,82.90
2019-05-22T00:59:38.250Z,82.90
2019-05-22T01:02:13.785Z,82.40
2019-05-22T01:04:48.340Z,81.60
2019-05-22T01:07:24.354Z,81.50
2019-05-22T01:09:59.797Z,81.20
2019-05-22T01:12:36.803Z,80.90
2019-05-22T01:15:12.650Z,80.70
2019-05-22T01:17:48.916Z,80.30
2019-05-22T01:20:25.640Z,79.90
2019-05-22T01:23:01.382Z,79.60
2019-05-22T01:25:37.376Z,79.60
2019-05-22T01:28:11.771Z,79.80
2019-05-22T01:31:02.537Z,79.80
2019-05-22T01:33:45.978Z,79.90
2019-05-22T01:36:29.157Z,79.20
2019-05-22T01:39:16.599Z,78.80
2019-05-22T01:41:51.695Z,78.60
2019-05-22T01:44:27.309Z,78.10
2019-05-22T01:47:05.376Z,77.70
2019-05-22T01:49:57.432Z,77.80
2019-05-22T01:52:32.177Z,77.70
2019-05-22T01:55:08.008Z,77.30
2019-05-22T01:57:43.081Z,77.00
2019-05-22T02:00:18.153Z,76.60
2019-05-22T02:02:54.586Z,76.40
2019-05-22T02:05:29.141Z,76.40
2019-05-22T02:08:03.785Z,76.40
2019-05-22T02:10:39.324Z,76.10
2019-05-22T02:13:15.027Z,76.00
2019-05-22T02:15:50.724Z,76.10
2019-05-22T02:18:25.981Z,76.20
2019-05-22T02:21:01.018Z,76.50
2019-05-22T02:23:35.378Z,76.20
2019-05-22T02:26:11.549Z,76.00
2019-05-22T02:28:46.098Z,76.20
2019-05-22T02:31:24.666Z,76.00
2019-05-22T02:34:18.280Z,76.50
2019-05-22T02:36:52.877Z,76.60
2019-05-22T02:39:31.645Z,76.60
2019-05-22T02:42:10.763Z,76.20
2019-05-22T02:44:47.050Z,75.80
2019-05-22T02:47:39.192Z,75.80
2019-05-22T02:50:13.980Z,75.80
2019-05-22T02:52:48.574Z,75.50
2019-05-22T02:55:22.917Z,75.40
2019-05-22T02:57:57.727Z,75.60
2019-05-22T03:00:35.014Z,74.80
2019-05-22T03:03:10.377Z,74.40
2019-05-22T03:05:45.183Z,74.90
2019-05-22T03:08:19.764Z,74.10
2019-05-22T03:10:54.087Z,74.10
2019-05-22T03:13:47.853Z,73.90
2019-05-22T03:16:22.106Z,73.90
2019-05-22T03:19:08.326Z,73.50
2019-05-22T03:21:32.505Z,73.20
2019-05-22T03:24:06.769Z,72.50
2019-05-22T03:26:54.556Z,72.30
2019-05-22T03:29:39.397Z,72.10
2019-05-22T03:32:14.776Z,71.80
2019-05-22T03:34:48.794Z,71.80
2019-05-22T03:37:24.678Z,71.80
2019-05-22T03:39:59.029Z,71.30
2019-05-22T03:42:33.669Z,71.40
2019-05-22T03:45:08.020Z,71.40
2019-05-22T03:47:43.114Z,71.10
2019-05-22T03:50:17.580Z,71.10
2019-05-22T03:52:52.418Z,71.10
2019-05-22T03:55:27.311Z,71.00
2019-05-22T04:05:06.098Z,69.70
2019-05-22T04:09:28.497Z,69.80
2019-05-22T04:12:03.763Z,70.50
2019-05-22T04:14:39.284Z,70.70
2019-05-22T04:17:14.107Z,69.20
2019-05-22T04:19:51.475Z,68.90
2019-05-22T04:22:25.737Z,68.70
2019-05-22T04:25:00.880Z,67.80
2019-05-22T04:27:35.786Z,67.30
2019-05-22T04:30:11.714Z,66.90
2019-05-22T04:32:47.488Z,66.50
2019-05-22T04:35:23.631Z,66.50
2019-05-22T04:37:58.837Z,67.00
2019-05-22T04:40:54.448Z,66.60
2019-05-22T04:43:30.606Z,66.20
2019-05-22T04:46:06.786Z,66.40
2019-05-22T04:48:45.534Z,65.70
2019-05-22T04:51:27.674Z,66.00
2019-05-22T04:54:02.140Z,65.50
2019-05-22T04:56:36.605Z,65.10
2019-05-22T04:59:11.714Z,65.40
2019-05-22T05:01:46.522Z,64.70
2019-05-22T05:04:21.303Z,64.60
2019-05-22T05:06:56.028Z,64.20
2019-05-22T05:09:31.088Z,63.80
2019-05-22T05:12:06.932Z,62.40
2019-05-22T05:14:41.753Z,62.50
2019-05-22T05:17:17.047Z,61.60
2019-05-22T05:19:51.990Z,62.00
2019-05-22T05:22:32.793Z,62.10
2019-05-22T05:25:07.087Z,62.30
2019-05-22T05:27:41.730Z,62.50
2019-05-22T05:30:16.339Z,62.90
2019-05-22T05:32:51.779Z,63.30
2019-05-22T05:35:26.433Z,63.80
2019-05-22T05:38:01.100Z,64.60
2019-05-22T05:40:43.346Z,64.80
2019-05-22T05:43:20.167Z,65.20
2019-05-22T05:45:54.434Z,65.60
2019-05-22T05:48:30.313Z,66.40
2019-05-22T05:51:43.127Z,66.90
2019-05-22T05:54:21.917Z,67.30
2019-05-22T05:56:56.475Z,67.30
2019-05-22T05:59:32.277Z,67.50
2019-05-22T06:02:06.923Z,67.10
2019-05-22T06:04:44.042Z,66.90
2019-05-22T06:07:34.450Z,68.30
2019-05-22T06:10:34.664Z,67.60
2019-05-22T06:13:10.640Z,68.30
2019-05-22T06:16:33.052Z,68.90
2019-05-22T06:19:08.672Z,69.40
2019-05-22T06:21:45.885Z,69.50
2019-05-22T06:24:29.248Z,69.80
2019-05-22T06:27:14.413Z,70.20
2019-05-22T06:30:02.810Z,70.00
2019-05-22T06:33:18.342Z,70.30
2019-05-22T06:35:53.509Z,69.90
2019-05-22T06:38:57.537Z,70.30
2019-05-22T06:41:32.827Z,70.20
2019-05-22T06:44:44.810Z,69.70
2019-05-22T06:47:26.895Z,70.00
2019-05-22T06:50:02.672Z,69.90
2019-05-22T06:52:37.208Z,70.00
2019-05-22T06:55:11.354Z,69.90
2019-05-22T06:57:45.967Z,70.00
2019-05-22T07:00:23.369Z,69.80
2019-05-22T07:02:58.454Z,70.00
2019-05-22T07:05:33.150Z,69.80
2019-05-22T07:08:09.419Z,69.70
2019-05-22T07:10:44.606Z,69.50
2019-05-22T07:13:21.207Z,69.20
2019-05-22T07:15:56.456Z,69.10
2019-05-22T07:18:33.089Z,69.20
2019-05-22T07:21:07.863Z,69.10
2019-05-22T07:23:43.061Z,69.00
2019-05-22T07:26:17.890Z,69.00
2019-05-22T07:28:52.434Z,69.10
2019-05-22T07:31:30.092Z,69.30
2019-05-22T07:34:05.037Z,69.70
2019-05-22T07:36:39.624Z,69.40
2019-05-22T07:39:14.436Z,69.60
2019-05-22T07:41:48.812Z,69.80
2019-05-22T07:44:23.508Z,69.60
2019-05-22T07:46:58.028Z,69.30
2019-05-22T07:49:32.469Z,69.70
2019-05-22T07:52:07.605Z,69.80
2019-05-22T07:54:43.219Z,70.00
2019-05-22T07:57:20.325Z,70.00
2019-05-22T07:59:55.030Z,70.20
2019-05-22T08:02:30.063Z,70.30
2019-05-22T08:05:05.686Z,70.20
2019-05-22T08:07:40.675Z,70.20
2019-05-22T08:10:17.102Z,70.00
2019-05-22T08:12:52.339Z,70.10
2019-05-22T08:15:27.094Z,70.50
2019-05-22T08:18:01.343Z,70.50
2019-05-22T08:20:35.960Z,70.40
2019-05-22T08:23:10.748Z,70.60
2019-05-22T08:25:45.684Z,70.60
2019-05-22T08:28:20.154Z,70.60
2019-05-22T08:30:54.700Z,70.60
2019-05-22T08:33:49.424Z,70.60
2019-05-22T08:36:24.243Z,70.90
2019-05-22T08:38:59.402Z,70.60
2019-05-22T08:41:38.333Z,70.60
2019-05-22T08:44:16.730Z,70.60
2019-05-22T08:46:51.191Z,70.70
2019-05-22T08:49:25.118Z,70.70
2019-05-22T08:51:59.781Z,70.80
2019-05-22T08:54:34.668Z,70.90
2019-05-22T08:57:10.015Z,71.00
2019-05-22T08:59:45.408Z,70.90
2019-05-22T09:02:20.977Z,71.10
2019-05-22T09:04:55.619Z,70.70
2019-05-22T09:07:30.519Z,70.70
2019-05-22T09:10:05.525Z,70.70
2019-05-22T09:12:40.361Z,70.90
2019-05-22T09:15:15.111Z,70.80
2019-05-22T09:17:50.325Z,70.80
2019-05-22T09:20:25.304Z,70.80
2019-05-22T09:23:00.736Z,70.80
2019-05-22T09:25:36.073Z,71.00
2019-05-22T09:28:10.901Z,71.00
2019-05-22T09:30:45.883Z,70.90
2019-05-22T09:33:20.356Z,71.10
2019-05-22T09:35:55.315Z,71.20
2019-05-22T09:38:30.650Z,71.40
2019-05-22T09:41:05.061Z,71.50
2019-05-22T09:43:39.799Z,71.50
2019-05-22T09:46:14.903Z,71.50
2019-05-22T09:48:49.370Z,71.50
2019-05-22T09:51:24.147Z,71.80
2019-05-22T09:54:02.037Z,71.90
2019-05-22T09:56:36.810Z,72.00
2019-05-22T09:59:13.568Z,73.00
2019-05-22T10:01:47.844Z,72.20
2019-05-22T10:04:22.417Z,72.50
2019-05-22T10:06:56.743Z,72.50
2019-05-22T10:09:31.641Z,72.60
2019-05-22T10:12:06.977Z,72.50
2019-05-22T10:14:41.979Z,72.60
2019-05-22T10:17:17.115Z,72.80
2019-05-22T10:19:51.647Z,72.90
2019-05-22T10:22:25.986Z,73.00
2019-05-22T10:25:15.006Z,73.10
2019-05-22T10:27:36.498Z,73.30
2019-05-22T10:30:15.064Z,73.50
2019-05-22T10:32:49.424Z,73.60
2019-05-22T10:35:26.645Z,73.80
2019-05-22T10:38:01.851Z,74.10
2019-05-22T10:40:36.752Z,74.00
2019-05-22T10:43:13.911Z,74.30
2019-05-22T10:45:48.408Z,74.30
2019-05-22T10:48:22.658Z,74.40
2019-05-22T10:50:57.328Z,74.60
2019-05-22T10:53:34.295Z,74.50
2019-05-22T10:56:09.196Z,74.60
2019-05-22T10:58:43.922Z,74.80
2019-05-22T11:01:18.390Z,74.80
2019-05-22T11:03:53.424Z,74.90
2019-05-22T11:06:28.401Z,75.20
2019-05-22T11:09:03.110Z,75.50
2019-05-22T11:11:37.790Z,75.50
2019-05-22T11:14:13.556Z,75.50
2019-05-22T11:16:50.455Z,76.00
2019-05-22T11:19:25.408Z,75.90
2019-05-22T11:22:00.166Z,76.20
2019-05-22T11:24:34.298Z,76.20
2019-05-22T11:27:09.281Z,76.20
2019-05-22T11:29:43.897Z,76.30
2019-05-22T11:32:18.846Z,76.40
2019-05-22T11:34:53.265Z,76.20
2019-05-22T11:37:28.317Z,76.20
2019-05-22T11:40:03.297Z,76.30
2019-05-22T11:42:38.039Z,76.20
2019-05-22T11:45:13.373Z,76.50
2019-05-22T11:47:47.795Z,76.50
2019-05-22T11:50:22.923Z,76.40
2019-05-22T11:52:57.591Z,76.60
2019-05-22T11:55:44.135Z,76.70
2019-05-22T11:58:08.606Z,76.60
2019-05-22T12:00:43.303Z,77.60
2019-05-22T12:03:18.096Z,76.60
2019-05-22T12:05:53.005Z,76.90
2019-05-22T12:08:27.884Z,76.90
2019-05-22T12:11:03.285Z,77.00
2019-05-22T12:13:37.911Z,77.10
2019-05-22T12:16:14.526Z,77.10
2019-05-22T12:18:49.453Z,77.10
2019-05-22T12:21:23.786Z,77.20
2019-05-22T12:23:58.019Z,77.40
2019-05-22T12:26:32.652Z,77.40
2019-05-22T12:29:08.807Z,77.50
2019-05-22T12:31:43.049Z,77.60
2019-05-22T12:34:18.425Z,77.80
2019-05-22T12:36:53.367Z,77.80
2019-05-22T12:39:28.486Z,77.70
2019-05-22T12:42:02.711Z,77.80
2019-05-22T12:44:38.430Z,78.10
2019-05-22T12:47:14.868Z,78.50
2019-05-22T12:49:50.647Z,78.30
2019-05-22T12:52:25.508Z,78.30
2019-05-22T12:54:59.657Z,78.20
2019-05-22T12:57:33.945Z,78.30
2019-05-22T13:00:08.826Z,79.20
2019-05-22T13:02:44.207Z,78.40
2019-05-22T13:05:18.983Z,78.60
2019-05-22T13:07:53.822Z,78.50
2019-05-22T13:10:28.505Z,78.70
2019-05-22T13:13:03.010Z,78.60
2019-05-22T13:15:38.785Z,79.60
2019-05-22T13:18:15.128Z,78.90
2019-05-22T13:20:49.902Z,78.90
2019-05-22T13:23:25.930Z,78.90
2019-05-22T13:26:00.573Z,79.10
2019-05-22T13:28:34.976Z,79.00
2019-05-22T13:31:10.491Z,79.20
2019-05-22T13:33:45.751Z,79.40
2019-05-22T13:36:20.869Z,78.90
2019-05-22T13:38:54.872Z,79.40
2019-05-22T13:41:30.116Z,79.40
2019-05-22T13:44:05.129Z,79.50
2019-05-22T13:46:39.961Z,80.20
2019-05-22T13:49:14.346Z,79.70
2019-05-22T13:51:48.908Z,79.40
2019-05-22T13:54:23.493Z,78.80
2019-05-22T13:56:58.221Z,78.30
2019-05-22T13:59:34.158Z,77.60
2019-05-22T14:02:08.999Z,77.10
2019-05-22T14:04:44.201Z,76.90
2019-05-22T14:07:18.847Z,76.60
2019-05-22T14:09:54.088Z,77.60
2019-05-22T14:12:28.975Z,77.50
2019-05-22T14:15:03.654Z,77.10
2019-05-22T14:17:38.120Z,76.60
2019-05-22T14:20:13.078Z,76.30
2019-05-22T14:22:47.944Z,76.10
2019-05-22T14:25:23.680Z,75.90
2019-05-22T14:27:58.122Z,75.60
2019-05-22T14:30:32.807Z,76.00
2019-05-22T14:33:07.966Z,76.10
2019-05-22T14:35:48.846Z,75.80
2019-05-22T14:38:19.606Z,76.10
2019-05-22T14:40:54.233Z,76.30
2019-05-22T14:43:30.108Z,75.70
2019-05-22T14:46:04.884Z,76.00
2019-05-22T14:48:39.579Z,76.00
2019-05-22T14:51:15.089Z,76.00
2019-05-22T14:53:49.775Z,76.10
2019-05-22T14:56:24.511Z,76.00
2019-05-22T14:59:00.048Z,76.00
2019-05-22T15:01:34.485Z,76.00
2019-05-22T15:04:09.193Z,75.90
2019-05-22T15:06:44.291Z,75.80
2019-05-22T15:09:19.161Z,75.80
2019-05-22T15:11:53.868Z,76.70
2019-05-22T15:14:28.385Z,75.90
2019-05-22T15:17:02.554Z,76.00
2019-05-22T15:19:37.285Z,76.00
2019-05-22T15:22:12.616Z,76.00
2019-05-22T15:24:47.055Z,76.00
2019-05-22T15:27:21.326Z,75.80
2019-05-22T15:29:56.138Z,75.80
2019-05-22T15:32:30.784Z,76.10
2019-05-22T15:35:04.917Z,76.10
2019-05-22T15:37:39.620Z,76.10
2019-05-22T15:40:15.011Z,76.40
2019-05-22T15:42:49.302Z,76.20
2019-05-22T15:45:24.414Z,76.20
2019-05-22T15:48:01.299Z,76.30
2019-05-22T15:50:36.321Z,76.20
2019-05-22T15:53:15.021Z,76.70
2019-05-22T15:55:49.662Z,76.80
2019-05-22T15:58:24.267Z,77.00
2019-05-22T16:00:59.949Z,77.00
2019-05-22T16:03:35.197Z,77.10
2019-05-22T16:06:09.813Z,77.30
2019-05-22T16:08:44.021Z,78.20
2019-05-22T16:11:20.212Z,77.30
2019-05-22T16:13:55.556Z,76.70
2019-05-22T16:16:31.566Z,77.40
2019-05-22T16:19:08.418Z,77.80
2019-05-22T16:21:44.511Z,77.40
2019-05-22T16:24:19.032Z,77.60
2019-05-22T16:27:11.111Z,77.70
2019-05-22T16:29:46.875Z,77.60
2019-05-22T16:32:22.845Z,77.80
2019-05-22T16:34:58.029Z,77.90
2019-05-22T16:37:32.686Z,78.00
2019-05-22T16:40:07.922Z,77.90
2019-05-22T16:42:42.565Z,77.80
2019-05-22T16:45:17.107Z,77.80
2019-05-22T16:47:52.094Z,78.00
2019-05-22T16:50:27.463Z,78.10
2019-05-22T16:53:02.796Z,78.30
2019-05-22T16:55:37.055Z,78.30
2019-05-22T16:58:12.005Z,79.00
2019-05-22T17:00:46.821Z,78.20
2019-05-22T17:03:21.516Z,78.30
2019-05-22T17:05:56.610Z,78.30
2019-05-22T17:08:31.833Z,78.40
2019-05-22T17:11:06.736Z,78.50
2019-05-22T17:13:41.617Z,78.70
2019-05-22T17:16:16.530Z,78.80
2019-05-22T17:18:51.343Z,78.80
2019-05-22T17:21:26.188Z,78.90
2019-05-22T17:24:01.451Z,79.30
2019-05-22T17:26:36.460Z,79.30
2019-05-22T17:29:11.352Z,79.30
2019-05-22T17:31:47.339Z,79.20
2019-05-22T17:34:38.909Z,79.10
2019-05-22T17:37:16.905Z,79.30
2019-05-22T17:39:51.956Z,79.20
2019-05-22T17:42:27.740Z,79.30
2019-05-22T17:45:02.392Z,79.30
2019-05-22T17:47:37.215Z,79.30
2019-05-22T17:50:26.305Z,79.20
2019-05-22T17:52:48.804Z,79.10
2019-05-22T17:55:24.185Z,79.20
2019-05-22T17:57:59.043Z,79.30
2019-05-22T18:00:39.663Z,79.20
2019-05-22T18:03:15.560Z,79.20
2019-05-22T18:05:50.225Z,79.30
2019-05-22T18:08:24.465Z,79.20
2019-05-22T18:10:59.559Z,79.40
2019-05-22T18:13:34.455Z,79.50
2019-05-22T18:16:09.081Z,79.60
2019-05-22T18:18:43.367Z,79.50
2019-05-22T18:21:17.792Z,79.60
2019-05-22T18:23:52.168Z,79.80
2019-05-22T18:26:26.902Z,80.00
2019-05-22T18:29:01.801Z,79.80
2019-05-22T18:31:36.696Z,80.80
2019-05-22T18:34:11.222Z,79.60
2019-05-22T18:36:45.654Z,79.50
2019-05-22T18:39:20.358Z,79.40
2019-05-22T18:42:13.782Z,79.30
2019-05-22T18:44:48.355Z,79.40
2019-05-22T18:47:22.939Z,79.90
2019-05-22T18:49:58.104Z,79.50
2019-05-22T18:52:41.068Z,79.70
2019-05-22T18:55:09.137Z,79.60
2019-05-22T18:57:44.252Z,79.80
2019-05-22T19:00:20.620Z,80.00
2019-05-22T19:02:55.605Z,80.00
2019-05-22T19:05:30.439Z,80.20
2019-05-22T19:08:04.982Z,80.00
2019-05-22T19:10:39.332Z,79.70
2019-05-22T19:13:14.823Z,79.60
2019-05-22T19:15:49.663Z,79.50
2019-05-22T19:18:24.149Z,79.60
2019-05-22T19:20:59.109Z,79.70
2019-05-22T19:23:33.732Z,80.00
2019-05-22T19:26:08.640Z,80.10
2019-05-22T19:28:44.767Z,80.10
2019-05-22T19:31:19.477Z,80.00
2019-05-22T19:33:54.166Z,80.10
2019-05-22T19:36:28.797Z,80.20
2019-05-22T19:39:04.150Z,80.20
2019-05-22T19:41:39.009Z,80.50
2019-05-22T19:44:13.639Z,80.40
2019-05-22T19:46:47.792Z,80.60
2019-05-22T19:49:22.920Z,80.70
2019-05-22T19:51:58.011Z,80.80
2019-05-22T19:54:34.119Z,80.80
2019-05-22T19:57:09.877Z,81.20
2019-05-22T19:59:45.218Z,80.80
2019-05-22T20:02:19.886Z,80.60
2019-05-22T20:04:54.135Z,80.40
2019-05-22T20:07:29.553Z,80.30
2019-05-22T20:10:04.778Z,80.10
2019-05-22T20:12:40.275Z,80.10
2019-05-22T20:15:14.624Z,80.70
2019-05-22T20:17:49.234Z,80.40
2019-05-22T20:20:24.609Z,80.50
2019-05-22T20:22:59.571Z,80.50
2019-05-22T20:25:35.254Z,80.60
2019-05-22T20:28:10.988Z,80.70
2019-05-22T20:30:45.638Z,80.70
2019-05-22T20:33:20.517Z,80.70
2019-05-22T20:35:55.464Z,80.80
2019-05-22T20:38:30.148Z,81.00
2019-05-22T20:41:05.038Z,81.00
2019-05-22T20:43:41.050Z,81.00
2019-05-22T20:46:16.351Z,81.80
2019-05-22T20:48:51.805Z,80.80
2019-05-22T20:51:27.673Z,80.90
2019-05-22T20:54:03.801Z,81.00
2019-05-22T20:56:39.451Z,81.20
2019-05-22T20:59:14.038Z,81.10
2019-05-22T21:01:48.957Z,81.10
2019-05-22T21:04:23.658Z,81.30
2019-05-22T21:07:03.018Z,80.60
2019-05-22T21:09:37.933Z,81.30
2019-05-22T21:12:12.304Z,81.00
2019-05-22T21:14:46.799Z,81.00
2019-05-22T21:17:22.633Z,80.90
2019-05-22T21:19:57.282Z,80.70
2019-05-22T21:22:31.952Z,80.70
2019-05-22T21:25:07.739Z,80.60
2019-05-22T21:27:43.796Z,80.70
2019-05-22T21:30:20.056Z,80.80
2019-05-22T21:32:54.956Z,81.60
2019-05-22T21:35:29.542Z,81.50
2019-05-22T21:38:04.954Z,81.40
2019-05-22T21:40:39.529Z,80.70
2019-05-22T21:43:14.099Z,80.90
2019-05-22T21:45:49.556Z,81.00
2019-05-22T21:48:23.758Z,81.10
2019-05-22T21:50:59.336Z,81.10
2019-05-22T21:53:34.404Z,81.10
2019-05-22T21:56:09.379Z,81.20
2019-05-22T21:58:43.912Z,81.10
2019-05-22T22:01:27.279Z,81.20
2019-05-22T22:04:19.385Z,81.40
2019-05-22T22:06:54.888Z,81.40
2019-05-22T22:09:30.971Z,81.50
2019-05-22T22:12:06.041Z,81.70
2019-05-22T22:14:41.228Z,81.70
2019-05-22T22:17:18.058Z,81.70
2019-05-22T22:19:53.508Z,81.60
2019-05-22T22:22:33.179Z,81.50
2019-05-22T22:25:08.702Z,81.50
2019-05-22T22:27:44.453Z,81.50
2019-05-22T22:30:36.158Z,81.60
2019-05-22T22:33:14.008Z,81.80
2019-05-22T22:35:48.867Z,82.00
2019-05-22T22:38:24.875Z,82.20
2019-05-22T22:41:01.150Z,82.20
2019-05-22T22:43:37.166Z,82.30
2019-05-22T22:46:24.545Z,82.20
2019-05-22T22:49:00.861Z,82.30
2019-05-22T22:51:37.118Z,82.30
2019-05-22T22:54:13.293Z,82.30
2019-05-22T22:56:48.544Z,82.50
2019-05-22T22:59:23.593Z,82.60
2019-05-22T23:01:59.551Z,82.40
2019-05-22T23:04:34.086Z,82.50
2019-05-22T23:07:10.692Z,82.60
2019-05-22T23:09:46.114Z,82.40
2019-05-22T23:12:21.835Z,82.70
2019-05-22T23:14:58.981Z,82.60
2019-05-22T23:17:34.582Z,83.60
2019-05-22T23:20:06.558Z,82.80
2019-05-22T23:22:37.564Z,82.90
2019-05-22T23:25:12.616Z,82.90
2019-05-22T23:27:48.533Z,82.80
2019-05-22T23:30:23.799Z,82.90
2019-05-22T23:32:58.626Z,82.80
2019-05-22T23:35:34.108Z,82.80
2019-05-22T23:38:09.466Z,83.00
2019-05-22T23:40:43.727Z,82.70
2019-05-22T23:43:18.812Z,82.60
2019-05-22T23:45:53.311Z,82.50
2019-05-22T23:48:28.663Z,82.70
2019-05-22T23:51:03.146Z,82.70
2019-05-22T23:53:38.793Z,83.00
2019-05-22T23:56:16.903Z,83.10
2019-05-22T23:58:53.221Z,83.10
